Terminal Aerodrome Forecast
Issued by NWS Mt. Holly, NJ

Home | Current Version | Previous Version | Text Only | Print | Product List | Glossary On
Versions: 1 2 3 4 5 6 7 8 9 10 11 12 13 14 15
000
FTUS41 KPHI 012300
TAFILG
TAF
KILG 012340Z 0200/0224 VRB05KT P6SM SCT050 OVC100
     FM020500 08005KT 5SM -SHRA BR OVC050
     FM020800 05009KT 4SM -SHRA BR OVC020
     FM021600 10009KT P6SM BKN050=

USA.gov is the U.S. government's official web portal to all federal, state and local government web resources and services.